sensor_id;sensor_type;location;lat;lon;timestamp;temperature;humidity
20722;DHT22;10522;52.198;9.890;2024-03-23T02:21:53;6.70;99.90
20722;DHT22;10522;52.198;9.890;2024-03-23T02:24:33;6.80;99.90
20722;DHT22;10522;52.198;9.890;2024-03-23T02:27:29;6.70;99.90
20722;DHT22;10522;52.198;9.890;2024-03-23T02:30:24;6.70;99.90
20722;DHT22;10522;52.198;9.890;2024-03-23T02:33:01;6.70;99.90
20722;DHT22;10522;52.198;9.890;2024-03-23T02:35:45;6.70;99.90
20722;DHT22;10522;52.198;9.890;2024-03-23T02:38:25;6.70;99.90
20722;DHT22;10522;52.198;9.890;2024-03-23T02:41:00;6.60;99.90
20722;DHT22;10522;52.198;9.890;2024-03-23T02:43:28;6.60;99.90
20722;DHT22;10522;52.198;9.890;2024-03-23T02:46:38;6.60;99.90
20722;DHT22;10522;52.198;9.890;2024-03-23T02:50:11;6.70;99.90
20722;DHT22;10522;52.198;9.890;2024-03-23T02:56:04;6.70;99.90
20722;DHT22;10522;52.198;9.890;2024-03-23T02:58:40;6.80;99.90
20722;DHT22;10522;52.198;9.890;2024-03-23T03:01:30;6.70;99.90
20722;DHT22;10522;52.198;9.890;2024-03-23T03:04:10;6.60;99.90
20722;DHT22;10522;52.198;9.890;2024-03-23T03:07:09;6.60;99.90
20722;DHT22;10522;52.198;9.890;2024-03-23T03:10:02;6.60;99.90
20722;DHT22;10522;52.198;9.890;2024-03-23T03:12:37;6.50;99.90
20722;DHT22;10522;52.198;9.890;2024-03-23T03:15:09;6.60;99.90
20722;DHT22;10522;52.198;9.890;2024-03-23T03:17:45;6.60;99.90
20722;DHT22;10522;52.198;9.890;2024-03-23T03:20:14;6.60;99.90
20722;DHT22;10522;52.198;9.890;2024-03-23T03:26:32;6.60;99.90
20722;DHT22;10522;52.198;9.890;2024-03-23T03:29:02;6.70;99.90
20722;DHT22;10522;52.198;9.890;2024-03-23T03:31:35;6.70;99.90
20722;DHT22;10522;52.198;9.890;2024-03-23T03:34:11;6.70;99.90
20722;DHT22;10522;52.198;9.890;2024-03-23T03:36:50;6.80;99.90
20722;DHT22;10522;52.198;9.890;2024-03-23T03:39:16;6.70;99.90
20722;DHT22;10522;52.198;9.890;2024-03-23T03:41:43;6.70;99.90
20722;DHT22;10522;52.198;9.890;2024-03-23T03:44:20;6.80;99.90
20722;DHT22;10522;52.198;9.890;2024-03-23T03:46:47;6.80;99.90
20722;DHT22;10522;52.198;9.890;2024-03-23T03:49:16;6.70;99.90
20722;DHT22;10522;52.198;9.890;2024-03-23T03:51:45;6.80;99.90
20722;DHT22;10522;52.198;9.890;2024-03-23T03:54:14;6.70;99.90
20722;DHT22;10522;52.198;9.890;2024-03-23T03:56:42;6.60;99.90
20722;DHT22;10522;52.198;9.890;2024-03-23T03:59:08;6.60;99.90
20722;DHT22;10522;52.198;9.890;2024-03-23T04:01:36;6.50;99.90
20722;DHT22;10522;52.198;9.890;2024-03-23T04:04:04;6.70;99.90
20722;DHT22;10522;52.198;9.890;2024-03-23T04:06:37;6.70;99.90
20722;DHT22;10522;52.198;9.890;2024-03-23T04:43:16;6.10;99.90
20722;DHT22;10522;52.198;9.890;2024-03-23T04:46:31;6.10;99.90
20722;DHT22;10522;52.198;9.890;2024-03-23T04:49:36;6.00;99.90
20722;DHT22;10522;52.198;9.890;2024-03-23T04:52:19;6.00;99.90
20722;DHT22;10522;52.198;9.890;2024-03-23T04:55:16;6.00;99.90
20722;DHT22;10522;52.198;9.890;2024-03-23T05:02:53;5.90;99.90
20722;DHT22;10522;52.198;9.890;2024-03-23T05:05:18;5.90;99.90
20722;DHT22;10522;52.198;9.890;2024-03-23T05:07:48;5.90;99.90
20722;DHT22;10522;52.198;9.890;2024-03-23T05:10:20;5.90;99.90
20722;DHT22;10522;52.198;9.890;2024-03-23T05:12:51;5.90;99.90
20722;DHT22;10522;52.198;9.890;2024-03-23T05:15:18;5.80;99.90
20722;DHT22;10522;52.198;9.890;2024-03-23T05:17:49;6.00;99.90
20722;DHT22;10522;52.198;9.890;2024-03-23T05:23:31;5.90;99.90
20722;DHT22;10522;52.198;9.890;2024-03-23T05:26:28;6.00;99.90
20722;DHT22;10522;52.198;9.890;2024-03-23T05:29:00;6.00;99.90
20722;DHT22;10522;52.198;9.890;2024-03-23T05:32:11;5.90;99.90
20722;DHT22;10522;52.198;9.890;2024-03-23T05:34:44;6.00;99.90
20722;DHT22;10522;52.198;9.890;2024-03-23T05:37:10;6.10;99.90
20722;DHT22;10522;52.198;9.890;2024-03-23T05:39:38;6.00;99.90
20722;DHT22;10522;52.198;9.890;2024-03-23T05:42:19;6.10;99.90
20722;DHT22;10522;52.198;9.890;2024-03-23T05:47:40;6.00;99.90
20722;DHT22;10522;52.198;9.890;2024-03-23T05:50:05;6.00;99.90
20722;DHT22;10522;52.198;9.890;2024-03-23T05:52:31;6.00;99.90
20722;DHT22;10522;52.198;9.890;2024-03-23T05:55:00;5.90;99.90
20722;DHT22;10522;52.198;9.890;2024-03-23T05:57:30;5.90;99.90
20722;DHT22;10522;52.198;9.890;2024-03-23T06:00:00;5.70;99.90
20722;DHT22;10522;52.198;9.890;2024-03-23T06:02:44;5.70;99.90
20722;DHT22;10522;52.198;9.890;2024-03-23T06:05:12;5.70;99.90
20722;DHT22;10522;52.198;9.890;2024-03-23T06:07:42;5.50;99.90
20722;DHT22;10522;52.198;9.890;2024-03-23T06:12:45;5.40;99.90
20722;DHT22;10522;52.198;9.890;2024-03-23T06:15:37;5.50;99.90
20722;DHT22;10522;52.198;9.890;2024-03-23T06:18:05;5.40;99.90
20722;DHT22;10522;52.198;9.890;2024-03-23T06:20:33;5.40;99.90
20722;DHT22;10522;52.198;9.890;2024-03-23T06:23:01;5.40;99.90
20722;DHT22;10522;52.198;9.890;2024-03-23T06:25:28;5.40;99.90
20722;DHT22;10522;52.198;9.890;2024-03-23T06:27:58;5.50;99.90
20722;DHT22;10522;52.198;9.890;2024-03-23T06:30:28;5.50;99.90
20722;DHT22;10522;52.198;9.890;2024-03-23T06:32:58;5.60;99.90
20722;DHT22;10522;52.198;9.890;2024-03-23T06:35:24;5.50;99.90
20722;DHT22;10522;52.198;9.890;2024-03-23T06:37:49;5.50;99.90
20722;DHT22;10522;52.198;9.890;2024-03-23T06:40:17;5.60;99.90
20722;DHT22;10522;52.198;9.890;2024-03-23T06:42:43;5.60;99.90
20722;DHT22;10522;52.198;9.890;2024-03-23T06:45:29;5.60;99.90
20722;DHT22;10522;52.198;9.890;2024-03-23T06:55:41;5.50;99.90
20722;DHT22;10522;52.198;9.890;2024-03-23T06:58:08;5.60;99.90
20722;DHT22;10522;52.198;9.890;2024-03-23T07:00:35;5.50;99.90
20722;DHT22;10522;52.198;9.890;2024-03-23T07:03:01;5.50;99.90
20722;DHT22;10522;52.198;9.890;2024-03-23T07:05:27;5.40;99.90
20722;DHT22;10522;52.198;9.890;2024-03-23T07:07:52;5.50;99.90
20722;DHT22;10522;52.198;9.890;2024-03-23T07:10:18;5.50;99.90
20722;DHT22;10522;52.198;9.890;2024-03-23T07:12:44;5.50;99.90
20722;DHT22;10522;52.198;9.890;2024-03-23T07:15:09;5.50;99.90
20722;DHT22;10522;52.198;9.890;2024-03-23T07:20:19;5.60;99.90
20722;DHT22;10522;52.198;9.890;2024-03-23T07:22:46;5.70;99.90
20722;DHT22;10522;52.198;9.890;2024-03-23T07:25:12;5.70;99.90
20722;DHT22;10522;52.198;9.890;2024-03-23T07:27:38;5.80;99.90
20722;DHT22;10522;52.198;9.890;2024-03-23T07:30:05;5.70;99.90
20722;DHT22;10522;52.198;9.890;2024-03-23T07:32:31;5.80;99.90
20722;DHT22;10522;52.198;9.890;2024-03-23T07:34:57;6.00;99.90
20722;DHT22;10522;52.198;9.890;2024-03-23T07:37:23;6.00;99.90
20722;DHT22;10522;52.198;9.890;2024-03-23T07:39:49;6.00;99.90
20722;DHT22;10522;52.198;9.890;2024-03-23T07:42:15;6.10;99.90
20722;DHT22;10522;52.198;9.890;2024-03-23T07:44:40;6.10;99.90
20722;DHT22;10522;52.198;9.890;2024-03-23T07:47:06;6.20;99.90
20722;DHT22;10522;52.198;9.890;2024-03-23T07:49:32;6.20;99.90
20722;DHT22;10522;52.198;9.890;2024-03-23T07:51:58;6.10;99.90
20722;DHT22;10522;52.198;9.890;2024-03-23T07:54:23;6.10;99.90
20722;DHT22;10522;52.198;9.890;2024-03-23T07:56:49;6.00;99.90
20722;DHT22;10522;52.198;9.890;2024-03-23T07:59:15;6.10;99.90
20722;DHT22;10522;52.198;9.890;2024-03-23T08:01:40;6.00;99.90
20722;DHT22;10522;52.198;9.890;2024-03-23T08:04:07;6.00;99.90
20722;DHT22;10522;52.198;9.890;2024-03-23T08:06:33;6.20;99.90
20722;DHT22;10522;52.198;9.890;2024-03-23T08:08:59;6.20;99.90
20722;DHT22;10522;52.198;9.890;2024-03-23T08:11:31;6.10;99.90
20722;DHT22;10522;52.198;9.890;2024-03-23T08:13:58;6.20;99.90
20722;DHT22;10522;52.198;9.890;2024-03-23T08:16:24;6.30;99.90
20722;DHT22;10522;52.198;9.890;2024-03-23T08:18:53;6.10;99.90
20722;DHT22;10522;52.198;9.890;2024-03-23T08:21:24;6.00;99.90
20722;DHT22;10522;52.198;9.890;2024-03-23T08:23:52;6.20;99.90
20722;DHT22;10522;52.198;9.890;2024-03-23T08:26:21;6.30;99.90
20722;DHT22;10522;52.198;9.890;2024-03-23T08:28:47;6.50;99.90
20722;DHT22;10522;52.198;9.890;2024-03-23T08:31:13;6.60;99.90
20722;DHT22;10522;52.198;9.890;2024-03-23T08:33:42;6.60;99.90
20722;DHT22;10522;52.198;9.890;2024-03-23T08:36:11;6.80;99.90
20722;DHT22;10522;52.198;9.890;2024-03-23T08:38:37;6.80;99.90
20722;DHT22;10522;52.198;9.890;2024-03-23T08:41:10;6.90;99.90
20722;DHT22;10522;52.198;9.890;2024-03-23T08:43:40;7.00;99.90
20722;DHT22;10522;52.198;9.890;2024-03-23T08:46:13;6.90;99.90
20722;DHT22;10522;52.198;9.890;2024-03-23T08:48:44;7.00;99.90
20722;DHT22;10522;52.198;9.890;2024-03-23T08:51:13;7.20;99.90
20722;DHT22;10522;52.198;9.890;2024-03-23T08:53:39;7.20;99.90
20722;DHT22;10522;52.198;9.890;2024-03-23T08:56:06;7.40;99.90
20722;DHT22;10522;52.198;9.890;2024-03-23T08:58:33;7.40;99.90
20722;DHT22;10522;52.198;9.890;2024-03-23T09:01:07;7.50;99.90
20722;DHT22;10522;52.198;9.890;2024-03-23T09:03:38;7.60;99.90
20722;DHT22;10522;52.198;9.890;2024-03-23T09:06:08;7.60;99.90
20722;DHT22;10522;52.198;9.890;2024-03-23T09:08:34;7.80;99.90
20722;DHT22;10522;52.198;9.890;2024-03-23T09:11:24;7.60;99.90
20722;DHT22;10522;52.198;9.890;2024-03-23T09:13:51;7.70;99.90
20722;DHT22;10522;52.198;9.890;2024-03-23T09:16:17;7.70;99.90
20722;DHT22;10522;52.198;9.890;2024-03-23T09:18:42;7.50;99.90
20722;DHT22;10522;52.198;9.890;2024-03-23T09:21:22;7.20;99.90
20722;DHT22;10522;52.198;9.890;2024-03-23T09:23:48;6.90;99.90
20722;DHT22;10522;52.198;9.890;2024-03-23T09:26:18;6.90;99.90
20722;DHT22;10522;52.198;9.890;2024-03-23T09:28:53;7.00;99.90
20722;DHT22;10522;52.198;9.890;2024-03-23T09:31:23;7.10;99.90
20722;DHT22;10522;52.198;9.890;2024-03-23T09:33:49;7.20;99.90
20722;DHT22;10522;52.198;9.890;2024-03-23T09:36:15;7.70;99.90
20722;DHT22;10522;52.198;9.890;2024-03-23T09:38:41;8.10;99.90
20722;DHT22;10522;52.198;9.890;2024-03-23T09:41:10;8.40;99.90
20722;DHT22;10522;52.198;9.890;2024-03-23T09:43:39;8.70;99.90
20722;DHT22;10522;52.198;9.890;2024-03-23T09:46:05;8.60;99.90
20722;DHT22;10522;52.198;9.890;2024-03-23T09:48:31;8.50;99.90
20722;DHT22;10522;52.198;9.890;2024-03-23T09:50:57;8.20;99.90
20722;DHT22;10522;52.198;9.890;2024-03-23T09:53:22;8.00;99.90
20722;DHT22;10522;52.198;9.890;2024-03-23T09:55:48;7.90;99.90
20722;DHT22;10522;52.198;9.890;2024-03-23T09:58:18;7.70;99.90
20722;DHT22;10522;52.198;9.890;2024-03-23T10:00:44;7.60;99.90
20722;DHT22;10522;52.198;9.890;2024-03-23T10:03:09;7.40;99.90
20722;DHT22;10522;52.198;9.890;2024-03-23T10:05:37;7.30;99.90
20722;DHT22;10522;52.198;9.890;2024-03-23T10:10:41;7.40;99.90
20722;DHT22;10522;52.198;9.890;2024-03-23T10:13:06;7.70;99.90
20722;DHT22;10522;52.198;9.890;2024-03-23T10:15:34;8.20;99.90
20722;DHT22;10522;52.198;9.890;2024-03-23T10:20:41;8.70;99.90
20722;DHT22;10522;52.198;9.890;2024-03-23T10:23:30;8.40;99.90
20722;DHT22;10522;52.198;9.890;2024-03-23T10:26:21;7.90;99.90
20722;DHT22;10522;52.198;9.890;2024-03-23T10:29:01;7.50;99.90
20722;DHT22;10522;52.198;9.890;2024-03-23T10:31:31;7.60;99.90
20722;DHT22;10522;52.198;9.890;2024-03-23T10:34:02;8.20;99.90
20722;DHT22;10522;52.198;9.890;2024-03-23T10:39:07;8.90;99.90
20722;DHT22;10522;52.198;9.890;2024-03-23T10:44:08;9.40;99.90
20722;DHT22;10522;52.198;9.890;2024-03-23T10:46:34;9.70;99.90
20722;DHT22;10522;52.198;9.890;2024-03-23T10:49:00;9.70;99.90
20722;DHT22;10522;52.198;9.890;2024-03-23T10:51:26;9.60;99.90
20722;DHT22;10522;52.198;9.890;2024-03-23T10:53:53;9.70;99.90
20722;DHT22;10522;52.198;9.890;2024-03-23T10:56:23;9.30;99.90
20722;DHT22;10522;52.198;9.890;2024-03-23T10:58:49;8.20;99.90
20722;DHT22;10522;52.198;9.890;2024-03-23T11:01:16;7.50;99.90
20722;DHT22;10522;52.198;9.890;2024-03-23T11:03:56;7.30;99.90
20722;DHT22;10522;52.198;9.890;2024-03-23T11:06:38;7.50;99.90
20722;DHT22;10522;52.198;9.890;2024-03-23T11:09:04;7.70;99.90
20722;DHT22;10522;52.198;9.890;2024-03-23T11:11:35;7.80;99.90
20722;DHT22;10522;52.198;9.890;2024-03-23T11:14:21;8.00;99.90
20722;DHT22;10522;52.198;9.890;2024-03-23T11:17:10;8.60;99.90
20722;DHT22;10522;52.198;9.890;2024-03-23T11:19:37;8.90;99.90
20722;DHT22;10522;52.198;9.890;2024-03-23T11:22:03;9.20;99.90
20722;DHT22;10522;52.198;9.890;2024-03-23T11:24:31;9.40;99.90
20722;DHT22;10522;52.198;9.890;2024-03-23T11:26:57;9.70;99.90
20722;DHT22;10522;52.198;9.890;2024-03-23T11:29:26;9.90;99.90
20722;DHT22;10522;52.198;9.890;2024-03-23T11:31:52;9.60;99.90
20722;DHT22;10522;52.198;9.890;2024-03-23T11:34:19;9.30;99.90
20722;DHT22;10522;52.198;9.890;2024-03-23T11:36:46;9.00;99.90
20722;DHT22;10522;52.198;9.890;2024-03-23T11:39:19;9.10;99.90
20722;DHT22;10522;52.198;9.890;2024-03-23T11:41:56;9.40;99.90
20722;DHT22;10522;52.198;9.890;2024-03-23T11:44:26;8.70;99.90
20722;DHT22;10522;52.198;9.890;2024-03-23T11:46:52;8.20;99.90
20722;DHT22;10522;52.198;9.890;2024-03-23T11:49:28;8.10;99.90
20722;DHT22;10522;52.198;9.890;2024-03-23T11:51:55;8.00;99.90
20722;DHT22;10522;52.198;9.890;2024-03-23T11:54:23;7.90;99.90
20722;DHT22;10522;52.198;9.890;2024-03-23T12:01:59;7.80;99.90
20722;DHT22;10522;52.198;9.890;2024-03-23T12:04:28;8.40;99.90
20722;DHT22;10522;52.198;9.890;2024-03-23T12:07:17;9.20;99.90
20722;DHT22;10522;52.198;9.890;2024-03-23T12:09:47;9.40;99.90
20722;DHT22;10522;52.198;9.890;2024-03-23T12:12:27;9.20;99.90
20722;DHT22;10522;52.198;9.890;2024-03-23T12:17:28;8.50;99.90
20722;DHT22;10522;52.198;9.890;2024-03-23T12:19:54;7.70;99.90
20722;DHT22;10522;52.198;9.890;2024-03-23T12:22:24;6.60;99.90
20722;DHT22;10522;52.198;9.890;2024-03-23T12:24:50;5.70;99.90
20722;DHT22;10522;52.198;9.890;2024-03-23T12:27:16;5.30;99.90
20722;DHT22;10522;52.198;9.890;2024-03-23T12:29:42;5.30;99.90
20722;DHT22;10522;52.198;9.890;2024-03-23T12:32:11;5.80;99.90
20722;DHT22;10522;52.198;9.890;2024-03-23T12:34:37;6.20;99.90
20722;DHT22;10522;52.198;9.890;2024-03-23T12:37:02;6.50;99.90
20722;DHT22;10522;52.198;9.890;2024-03-23T12:39:28;7.00;99.90
20722;DHT22;10522;52.198;9.890;2024-03-23T12:41:54;7.10;99.90
20722;DHT22;10522;52.198;9.890;2024-03-23T12:44:19;6.90;99.90
20722;DHT22;10522;52.198;9.890;2024-03-23T12:46:46;6.80;99.90
20722;DHT22;10522;52.198;9.890;2024-03-23T12:49:12;6.70;99.90
20722;DHT22;10522;52.198;9.890;2024-03-23T12:51:48;6.60;99.90
20722;DHT22;10522;52.198;9.890;2024-03-23T12:54:15;6.60;99.90
20722;DHT22;10522;52.198;9.890;2024-03-23T12:56:40;6.60;99.90
20722;DHT22;10522;52.198;9.890;2024-03-23T12:59:12;6.70;99.90
20722;DHT22;10522;52.198;9.890;2024-03-23T13:01:48;6.50;99.90
20722;DHT22;10522;52.198;9.890;2024-03-23T13:04:15;5.20;99.90
20722;DHT22;10522;52.198;9.890;2024-03-23T13:06:41;4.90;99.90
20722;DHT22;10522;52.198;9.890;2024-03-23T13:09:08;4.70;99.90
20722;DHT22;10522;52.198;9.890;2024-03-23T13:11:38;4.60;99.90
20722;DHT22;10522;52.198;9.890;2024-03-23T13:14:04;4.70;99.90
20722;DHT22;10522;52.198;9.890;2024-03-23T13:16:30;4.90;99.90
20722;DHT22;10522;52.198;9.890;2024-03-23T13:18:56;5.30;99.90
20722;DHT22;10522;52.198;9.890;2024-03-23T13:21:22;5.80;99.90
20722;DHT22;10522;52.198;9.890;2024-03-23T13:23:48;6.20;99.90
20722;DHT22;10522;52.198;9.890;2024-03-23T13:26:15;6.50;99.90
20722;DHT22;10522;52.198;9.890;2024-03-23T13:28:41;6.60;99.90
20722;DHT22;10522;52.198;9.890;2024-03-23T13:31:07;6.70;99.90
20722;DHT22;10522;52.198;9.890;2024-03-23T13:33:36;7.00;99.90
20722;DHT22;10522;52.198;9.890;2024-03-23T13:36:02;6.90;99.90
20722;DHT22;10522;52.198;9.890;2024-03-23T13:38:30;6.60;99.90
20722;DHT22;10522;52.198;9.890;2024-03-23T13:40:57;6.50;99.90
20722;DHT22;10522;52.198;9.890;2024-03-23T13:43:23;6.50;99.90
20722;DHT22;10522;52.198;9.890;2024-03-23T13:45:53;6.70;99.90
20722;DHT22;10522;52.198;9.890;2024-03-23T13:48:22;7.10;99.90
20722;DHT22;10522;52.198;9.890;2024-03-23T13:51:00;7.80;99.90
20722;DHT22;10522;52.198;9.890;2024-03-23T13:53:26;8.20;99.90
20722;DHT22;10522;52.198;9.890;2024-03-23T13:55:52;7.90;99.90
20722;DHT22;10522;52.198;9.890;2024-03-23T13:58:18;8.10;99.90
20722;DHT22;10522;52.198;9.890;2024-03-23T14:00:43;8.10;99.90
20722;DHT22;10522;52.198;9.890;2024-03-23T14:03:13;8.20;99.90
20722;DHT22;10522;52.198;9.890;2024-03-23T14:05:39;8.20;99.90
20722;DHT22;10522;52.198;9.890;2024-03-23T14:08:09;8.20;99.90
20722;DHT22;10522;52.198;9.890;2024-03-23T14:10:40;8.00;99.90
20722;DHT22;10522;52.198;9.890;2024-03-23T14:13:06;7.70;99.90
20722;DHT22;10522;52.198;9.890;2024-03-23T14:15:32;7.50;99.90
20722;DHT22;10522;52.198;9.890;2024-03-23T14:17:58;7.30;99.90
20722;DHT22;10522;52.198;9.890;2024-03-23T14:20:29;7.10;99.90
20722;DHT22;10522;52.198;9.890;2024-03-23T14:22:56;6.80;99.90
20722;DHT22;10522;52.198;9.890;2024-03-23T14:25:21;6.50;99.90
20722;DHT22;10522;52.198;9.890;2024-03-23T14:27:52;6.20;99.90
20722;DHT22;10522;52.198;9.890;2024-03-23T14:30:22;6.10;99.90
20722;DHT22;10522;52.198;9.890;2024-03-23T14:32:49;6.20;99.90
20722;DHT22;10522;52.198;9.890;2024-03-23T14:35:16;6.30;99.90
20722;DHT22;10522;52.198;9.890;2024-03-23T14:37:46;6.30;99.90
20722;DHT22;10522;52.198;9.890;2024-03-23T14:40:12;5.90;99.90
20722;DHT22;10522;52.198;9.890;2024-03-23T14:42:48;5.30;99.90
20722;DHT22;10522;52.198;9.890;2024-03-23T14:45:15;5.00;99.90
20722;DHT22;10522;52.198;9.890;2024-03-23T14:47:41;4.70;99.90
20722;DHT22;10522;52.198;9.890;2024-03-23T14:50:10;4.60;99.90
20722;DHT22;10522;52.198;9.890;2024-03-23T14:53:01;4.70;99.90
20722;DHT22;10522;52.198;9.890;2024-03-23T14:55:34;4.90;99.90
20722;DHT22;10522;52.198;9.890;2024-03-23T14:58:03;5.70;99.90
20722;DHT22;10522;52.198;9.890;2024-03-23T15:00:28;6.80;99.90
20722;DHT22;10522;52.198;9.890;2024-03-23T15:02:54;7.40;99.90
20722;DHT22;10522;52.198;9.890;2024-03-23T15:05:19;8.10;99.90
20722;DHT22;10522;52.198;9.890;2024-03-23T15:07:46;8.50;99.90
20722;DHT22;10522;52.198;9.890;2024-03-23T15:10:13;9.00;99.90
20722;DHT22;10522;52.198;9.890;2024-03-23T15:12:42;8.20;99.90
20722;DHT22;10522;52.198;9.890;2024-03-23T15:15:08;7.10;99.90
20722;DHT22;10522;52.198;9.890;2024-03-23T15:17:34;6.60;99.90
20722;DHT22;10522;52.198;9.890;2024-03-23T15:20:02;6.50;99.90
20722;DHT22;10522;52.198;9.890;2024-03-23T15:22:28;7.70;99.90
20722;DHT22;10522;52.198;9.890;2024-03-23T15:24:53;9.40;99.90
20722;DHT22;10522;52.198;9.890;2024-03-23T15:27:19;10.40;99.90
20722;DHT22;10522;52.198;9.890;2024-03-23T15:29:45;10.70;99.90
20722;DHT22;10522;52.198;9.890;2024-03-23T15:32:11;11.30;99.90
20722;DHT22;10522;52.198;9.890;2024-03-23T15:34:37;11.30;99.90
20722;DHT22;10522;52.198;9.890;2024-03-23T15:37:02;11.20;99.90
20722;DHT22;10522;52.198;9.890;2024-03-23T15:39:28;11.10;99.90
20722;DHT22;10522;52.198;9.890;2024-03-23T15:41:54;10.20;99.90
20722;DHT22;10522;52.198;9.890;2024-03-23T15:44:23;10.30;99.90
20722;DHT22;10522;52.198;9.890;2024-03-23T15:46:48;10.10;99.90
20722;DHT22;10522;52.198;9.890;2024-03-23T15:49:14;8.50;99.90
20722;DHT22;10522;52.198;9.890;2024-03-23T15:51:40;7.60;99.90
20722;DHT22;10522;52.198;9.890;2024-03-23T15:54:08;7.00;99.90
20722;DHT22;10522;52.198;9.890;2024-03-23T15:56:34;6.60;99.90
20722;DHT22;10522;52.198;9.890;2024-03-23T15:59:02;6.50;99.90
20722;DHT22;10522;52.198;9.890;2024-03-23T16:01:44;6.30;99.90
20722;DHT22;10522;52.198;9.890;2024-03-23T16:04:10;6.20;99.90
20722;DHT22;10522;52.198;9.890;2024-03-23T16:06:36;6.20;99.90
20722;DHT22;10522;52.198;9.890;2024-03-23T16:09:03;6.10;99.90
20722;DHT22;10522;52.198;9.890;2024-03-23T16:11:35;6.10;99.90
20722;DHT22;10522;52.198;9.890;2024-03-23T16:14:01;6.00;99.90
20722;DHT22;10522;52.198;9.890;2024-03-23T16:16:28;5.90;99.90
20722;DHT22;10522;52.198;9.890;2024-03-23T16:18:55;5.70;99.90
20722;DHT22;10522;52.198;9.890;2024-03-23T16:21:20;5.50;99.90
20722;DHT22;10522;52.198;9.890;2024-03-23T16:23:46;5.40;99.90
20722;DHT22;10522;52.198;9.890;2024-03-23T16:26:12;5.60;99.90
20722;DHT22;10522;52.198;9.890;2024-03-23T16:28:38;6.60;99.90
20722;DHT22;10522;52.198;9.890;2024-03-23T16:31:05;7.50;99.90
20722;DHT22;10522;52.198;9.890;2024-03-23T16:33:37;8.10;99.90
20722;DHT22;10522;52.198;9.890;2024-03-23T16:36:07;8.20;99.90
20722;DHT22;10522;52.198;9.890;2024-03-23T16:38:42;8.00;99.90
20722;DHT22;10522;52.198;9.890;2024-03-23T16:41:12;7.50;99.90
20722;DHT22;10522;52.198;9.890;2024-03-23T16:43:41;7.20;99.90
20722;DHT22;10522;52.198;9.890;2024-03-23T16:46:13;7.20;99.90
20722;DHT22;10522;52.198;9.890;2024-03-23T16:48:43;7.30;99.90
20722;DHT22;10522;52.198;9.890;2024-03-23T16:51:10;7.20;99.90
20722;DHT22;10522;52.198;9.890;2024-03-23T16:53:39;7.30;99.90
20722;DHT22;10522;52.198;9.890;2024-03-23T16:56:08;7.20;99.90
20722;DHT22;10522;52.198;9.890;2024-03-23T16:58:35;7.10;99.90
20722;DHT22;10522;52.198;9.890;2024-03-23T17:01:13;6.80;99.90
20722;DHT22;10522;52.198;9.890;2024-03-23T17:03:49;6.60;99.90
20722;DHT22;10522;52.198;9.890;2024-03-23T17:06:16;6.10;99.90
20722;DHT22;10522;52.198;9.890;2024-03-23T17:08:46;5.60;99.90
20722;DHT22;10522;52.198;9.890;2024-03-23T17:11:14;5.40;99.90
20722;DHT22;10522;52.198;9.890;2024-03-23T17:13:41;5.30;99.90
20722;DHT22;10522;52.198;9.890;2024-03-23T17:16:06;5.20;99.90
20722;DHT22;10522;52.198;9.890;2024-03-23T17:18:34;5.10;99.90
20722;DHT22;10522;52.198;9.890;2024-03-23T17:21:00;5.00;99.90
20722;DHT22;10522;52.198;9.890;2024-03-23T17:23:30;5.00;99.90
20722;DHT22;10522;52.198;9.890;2024-03-23T17:25:57;4.80;99.90
20722;DHT22;10522;52.198;9.890;2024-03-23T17:28:25;4.70;99.90
20722;DHT22;10522;52.198;9.890;2024-03-23T17:30:51;4.70;99.90
20722;DHT22;10522;52.198;9.890;2024-03-23T17:33:17;4.70;99.90
20722;DHT22;10522;52.198;9.890;2024-03-23T17:35:46;4.70;99.90
20722;DHT22;10522;52.198;9.890;2024-03-23T17:38:14;4.60;99.90
20722;DHT22;10522;52.198;9.890;2024-03-23T17:40:41;4.60;99.90
20722;DHT22;10522;52.198;9.890;2024-03-23T17:43:06;4.60;99.90
20722;DHT22;10522;52.198;9.890;2024-03-23T17:45:32;4.60;99.90
20722;DHT22;10522;52.198;9.890;2024-03-23T17:47:59;4.70;99.90
20722;DHT22;10522;52.198;9.890;2024-03-23T17:50:24;4.70;99.90
20722;DHT22;10522;52.198;9.890;2024-03-23T17:52:50;4.70;99.90
20722;DHT22;10522;52.198;9.890;2024-03-23T17:55:16;4.80;99.90
20722;DHT22;10522;52.198;9.890;2024-03-23T17:57:42;4.80;99.90
20722;DHT22;10522;52.198;9.890;2024-03-23T18:00:10;4.90;99.90
20722;DHT22;10522;52.198;9.890;2024-03-23T18:02:49;5.00;99.90
20722;DHT22;10522;52.198;9.890;2024-03-23T18:05:15;5.00;99.90
20722;DHT22;10522;52.198;9.890;2024-03-23T18:27:59;4.90;99.90
20722;DHT22;10522;52.198;9.890;2024-03-23T18:30:30;4.50;99.90
20722;DHT22;10522;52.198;9.890;2024-03-23T19:04:02;3.80;99.90
20722;DHT22;10522;52.198;9.890;2024-03-23T19:06:29;3.80;99.90
20722;DHT22;10522;52.198;9.890;2024-03-23T19:08:57;3.80;99.90
20722;DHT22;10522;52.198;9.890;2024-03-23T19:11:55;3.90;99.90
20722;DHT22;10522;52.198;9.890;2024-03-23T19:14:42;3.90;99.90
20722;DHT22;10522;52.198;9.890;2024-03-23T19:17:15;3.90;99.90
20722;DHT22;10522;52.198;9.890;2024-03-23T19:19:42;3.90;99.90
20722;DHT22;10522;52.198;9.890;2024-03-23T19:22:18;3.80;99.90
20722;DHT22;10522;52.198;9.890;2024-03-23T19:24:44;3.70;99.90
20722;DHT22;10522;52.198;9.890;2024-03-23T19:27:11;3.70;99.90
20722;DHT22;10522;52.198;9.890;2024-03-23T19:29:37;3.70;99.90
20722;DHT22;10522;52.198;9.890;2024-03-23T19:32:03;3.50;99.90
20722;DHT22;10522;52.198;9.890;2024-03-23T19:34:29;3.40;99.90
20722;DHT22;10522;52.198;9.890;2024-03-23T19:37:00;3.40;99.90
20722;DHT22;10522;52.198;9.890;2024-03-23T19:39:26;3.50;99.90
20722;DHT22;10522;52.198;9.890;2024-03-23T19:41:51;3.40;99.90
20722;DHT22;10522;52.198;9.890;2024-03-23T19:44:17;3.40;99.90
20722;DHT22;10522;52.198;9.890;2024-03-23T19:46:43;3.30;99.90
20722;DHT22;10522;52.198;9.890;2024-03-23T19:49:10;3.30;99.90
20722;DHT22;10522;52.198;9.890;2024-03-23T19:51:36;3.20;99.90
20722;DHT22;10522;52.198;9.890;2024-03-23T19:54:02;3.20;99.90
20722;DHT22;10522;52.198;9.890;2024-03-23T19:56:28;3.20;99.90
20722;DHT22;10522;52.198;9.890;2024-03-23T19:58:54;3.20;99.90
20722;DHT22;10522;52.198;9.890;2024-03-23T20:01:19;3.20;99.90
20722;DHT22;10522;52.198;9.890;2024-03-23T20:03:48;3.20;99.90
20722;DHT22;10522;52.198;9.890;2024-03-23T20:06:18;3.10;99.90
20722;DHT22;10522;52.198;9.890;2024-03-23T20:08:44;3.20;99.90
20722;DHT22;10522;52.198;9.890;2024-03-23T20:11:10;3.20;99.90
20722;DHT22;10522;52.198;9.890;2024-03-23T20:13:36;3.20;99.90
20722;DHT22;10522;52.198;9.890;2024-03-23T20:16:02;3.20;99.90
20722;DHT22;10522;52.198;9.890;2024-03-23T20:18:31;3.20;99.90
20722;DHT22;10522;52.198;9.890;2024-03-23T20:21:00;3.10;99.90
20722;DHT22;10522;52.198;9.890;2024-03-23T20:23:26;3.30;99.90
20722;DHT22;10522;52.198;9.890;2024-03-23T20:25:52;3.20;99.90
20722;DHT22;10522;52.198;9.890;2024-03-23T20:28:19;3.20;99.90
20722;DHT22;10522;52.198;9.890;2024-03-23T20:31:03;3.20;99.90
20722;DHT22;10522;52.198;9.890;2024-03-23T20:33:30;3.20;99.90
20722;DHT22;10522;52.198;9.890;2024-03-23T20:35:56;3.30;99.90
20722;DHT22;10522;52.198;9.890;2024-03-23T20:38:23;3.30;99.90